Time;durP1;ratioP1;P1;durP2;ratioP2;P2;SDS_P1;SDS_P2;PMS_P1;PMS_P2;Temp;Humidity;BMP_temperature;BMP_pressure;BME280_temperature;BME280_humidity;BME280_pressure;Samples;Min_cycle;Max_cycle;Signal;HPM_P1;HPM_P2
2022/12/01 19:10:34;;;;;;;3.37;1.40;;;;;;;-1.12;100.00;102062.06;1819869;77;28926;-78
2022/12/01 19:13:18;;;;;;;1.98;1.77;;;;;;;-1.14;100.00;102064.06;1752344;80;21050;-77
2022/12/01 19:16:09;;;;;;;2.77;1.30;;;;;;;-1.12;100.00;102070.94;1743273;80;21519;-78
2022/12/01 19:18:54;;;;;;;3.20;1.70;;;;;;;-1.12;100.00;102069.61;1713825;83;21061;-77
2022/12/01 19:21:39;;;;;;;4.78;1.57;;;;;;;-1.09;100.00;102076.48;1669057;82;21846;-78
2022/12/01 19:24:24;;;;;;;2.83;1.45;;;;;;;-1.08;100.00;102075.50;1757751;80;20971;-78
2022/12/01 19:27:09;;;;;;;3.22;1.87;;;;;;;-1.05;100.00;102074.33;1704223;82;21038;-77
2022/12/01 19:29:54;;;;;;;2.47;1.25;;;;;;;-1.04;100.00;102071.47;1718597;81;21014;-77
2022/12/01 19:32:39;;;;;;;1.45;1.07;;;;;;;-1.03;100.00;102066.97;1733074;81;20998;-78
2022/12/01 19:35:23;;;;;;;2.10;1.52;;;;;;;-1.01;100.00;102076.53;1747926;80;20997;-77
2022/12/01 19:38:08;;;;;;;3.15;1.27;;;;;;;-0.99;100.00;102077.22;1705233;83;21156;-77
2022/12/01 19:40:53;;;;;;;2.30;1.55;;;;;;;-0.98;100.00;102072.17;1738887;81;21033;-78
2022/12/01 19:43:37;;;;;;;1.67;0.85;;;;;;;-0.98;100.00;102076.20;1681737;83;21064;-77
2022/12/01 19:46:24;;;;;;;3.58;1.30;;;;;;;-0.95;100.00;102075.86;1704548;81;21001;-77
2022/12/01 19:49:14;;;;;;;1.90;1.47;;;;;;;-0.96;100.00;102076.88;1716561;81;21061;-78
2022/12/01 19:51:59;;;;;;;4.03;1.52;;;;;;;-0.95;100.00;102075.86;1704301;81;21006;-77
2022/12/01 19:54:43;;;;;;;3.77;1.42;;;;;;;-0.94;100.00;102074.02;1748923;79;21017;-77
2022/12/01 19:57:28;;;;;;;6.08;1.52;;;;;;;-0.96;100.00;102074.20;1743742;80;21099;-78
2022/12/01 20:00:13;;;;;;;1.45;1.35;;;;;;;-0.98;100.00;102069.49;1727015;82;20998;-78
2022/12/01 20:02:59;;;;;;;2.20;1.50;;;;;;;-0.95;100.00;102075.03;1751145;80;21154;-77
2022/12/01 20:05:43;;;;;;;2.50;1.10;;;;;;;-0.96;100.00;102071.52;1755607;80;21433;-77
2022/12/01 20:08:28;;;;;;;3.92;1.20;;;;;;;-0.94;100.00;102066.83;1695333;82;21038;-77
2022/12/01 20:11:13;;;;;;;2.92;1.62;;;;;;;-0.96;100.00;102073.36;1705446;81;21064;-77
2022/12/01 20:13:58;;;;;;;2.98;1.12;;;;;;;-0.96;100.00;102074.20;1709776;81;21104;-77
2022/12/01 20:16:43;;;;;;;3.95;1.27;;;;;;;-0.97;100.00;102075.19;1738933;80;21041;-78
2022/12/01 20:19:28;;;;;;;4.22;1.65;;;;;;;-0.99;100.00;102078.56;1734315;80;21033;-77
2022/12/01 20:22:13;;;;;;;6.80;1.30;;;;;;;-0.98;100.00;102074.86;1708505;83;20998;-77
2022/12/01 20:24:57;;;;;;;2.45;1.55;;;;;;;-0.98;100.00;102075.36;1688613;82;21009;-77
2022/12/01 20:27:44;;;;;;;2.15;1.32;;;;;;;-0.98;100.00;102076.20;1699059;82;21033;-77
2022/12/01 20:30:28;;;;;;;1.47;1.07;;;;;;;-0.98;100.00;102078.88;1720089;82;21026;-77
2022/12/01 20:33:13;;;;;;;1.05;0.78;;;;;;;-0.99;100.00;102083.92;1750269;80;21486;-77
2022/12/01 20:35:57;;;;;;;1.57;0.80;;;;;;;-0.97;100.00;102083.74;1736362;80;21029;-77
2022/12/01 20:38:42;;;;;;;3.33;1.15;;;;;;;-0.96;100.00;102084.94;1731631;81;21045;-78
2022/12/01 20:41:26;;;;;;;2.52;0.75;;;;;;;-0.96;100.00;102090.30;1727154;81;20990;-78
2022/12/01 20:44:11;;;;;;;3.10;1.60;;;;;;;-0.94;100.00;102087.43;1743264;81;21099;-79
2022/12/01 20:46:56;;;;;;;4.30;1.70;;;;;;;-0.94;100.00;102082.93;1761389;81;21214;-79
2022/12/01 20:49:41;;;;;;;3.70;1.30;;;;;;;-0.96;100.00;102083.59;1755158;80;21071;-78
2022/12/01 20:52:25;;;;;;;1.55;1.05;;;;;;;-0.95;100.00;102091.13;1730956;81;21037;-78
2022/12/01 20:55:10;;;;;;;2.42;1.20;;;;;;;-0.97;100.00;102092.62;1741876;80;20981;-78
2022/12/01 20:57:55;;;;;;;3.65;1.15;;;;;;;-1.00;100.00;102095.64;1754282;80;21468;-78
2022/12/01 21:00:42;;;;;;;2.15;1.37;;;;;;;-1.00;100.00;102096.98;1742058;81;21533;-78
2022/12/01 21:03:27;;;;;;;2.58;1.05;;;;;;;-1.00;100.00;102090.27;1732900;81;21053;-79
2022/12/01 21:06:13;;;;;;;1.60;0.85;;;;;;;-0.99;100.00;102090.63;1725642;81;21069;-79
2022/12/01 21:08:57;;;;;;;2.17;1.47;;;;;;;-0.98;100.00;102095.49;1677740;83;21058;-78
2022/12/01 21:15:13;;;;;;;1.67;0.90;;;;;;;-1.01;100.00;102103.37;1743369;81;20983;-78
2022/12/01 21:18:01;;;;;;;1.15;0.72;;;;;;;-1.03;100.00;102101.34;1740177;81;21175;-78
2022/12/01 21:20:46;;;;;;;2.65;1.10;;;;;;;-1.04;100.00;102102.33;1743951;81;21061;-78
2022/12/01 21:23:30;;;;;;;5.72;1.35;;;;;;;-1.02;100.00;102103.52;1729696;81;21022;-78
